Time;durP1;ratioP1;P1;durP2;ratioP2;P2;SDS_P1;SDS_P2;PMS_P1;PMS_P2;Temp;Humidity;BMP_temperature;BMP_pressure;BME280_temperature;BME280_humidity;BME280_pressure;Samples;Min_cycle;Max_cycle;Signal;HPM_P1;HPM_P2
2023/12/29 00:01:32;;;;;;;1.50;1.40;;;11.80;39.00;;;;;;10451502;28;20233;-75
2023/12/29 00:06:38;;;;;;;1.60;1.30;;;11.90;39.10;;;;;;10451820;28;20229;-75
2023/12/29 00:11:56;;;;;;;1.50;1.40;;;11.80;39.20;;;;;;10451576;28;20229;-74
2023/12/29 00:17:00;;;;;;;1.50;1.27;;;11.80;39.00;;;;;;10451350;28;20232;-75
2023/12/29 00:22:05;;;;;;;1.67;1.33;;;11.80;39.10;;;;;;10450917;28;20765;-74
2023/12/29 00:27:08;;;;;;;1.40;1.30;;;11.80;39.10;;;;;;10450839;28;20964;-75
2023/12/29 00:32:12;;;;;;;1.50;1.40;;;11.80;39.10;;;;;;10449875;28;20628;-75
2023/12/29 00:37:16;;;;;;;1.63;1.53;;;11.90;39.20;;;;;;10450680;28;20251;-74
2023/12/29 00:42:19;;;;;;;1.40;1.30;;;11.90;39.20;;;;;;10449751;28;20244;-75
2023/12/29 00:47:24;;;;;;;1.83;1.57;;;11.90;39.10;;;;;;10450090;28;20264;-75
2023/12/29 00:52:28;;;;;;;1.80;1.63;;;12.00;39.20;;;;;;10450206;28;20236;-75
2023/12/29 00:57:31;;;;;;;1.60;1.50;;;12.00;38.90;;;;;;10449753;28;20236;-75
2023/12/29 01:02:36;;;;;;;2.33;1.77;;;12.00;38.90;;;;;;10449656;28;20241;-75
2023/12/29 01:07:40;;;;;;;1.87;1.60;;;12.10;38.80;;;;;;10449191;28;20247;-75
2023/12/29 01:12:43;;;;;;;1.50;1.40;;;12.10;38.80;;;;;;10449057;28;20593;-74
2023/12/29 01:17:48;;;;;;;1.70;1.60;;;12.10;38.60;;;;;;10448447;28;20233;-75
2023/12/29 01:22:51;;;;;;;1.60;1.40;;;12.10;38.50;;;;;;10448939;28;20244;-74
2023/12/29 01:27:55;;;;;;;1.70;1.60;;;12.10;38.60;;;;;;10448663;28;20319;-75
2023/12/29 01:32:59;;;;;;;2.00;1.50;;;12.10;38.70;;;;;;10448548;28;20232;-75
2023/12/29 01:38:04;;;;;;;1.83;1.73;;;12.10;38.70;;;;;;10447973;28;20244;-75
2023/12/29 01:43:07;;;;;;;2.10;1.70;;;12.10;38.50;;;;;;10447688;28;20249;-75
2023/12/29 01:48:12;;;;;;;2.07;1.90;;;12.10;38.50;;;;;;10447750;28;20244;-75
2023/12/29 01:53:15;;;;;;;1.90;1.80;;;12.10;38.40;;;;;;10448061;28;20240;-75
2023/12/29 01:58:18;;;;;;;1.80;1.70;;;12.10;38.30;;;;;;10446783;28;20861;-75
2023/12/29 02:03:23;;;;;;;2.03;1.87;;;12.10;38.40;;;;;;10447681;28;20247;-74
2023/12/29 02:08:26;;;;;;;1.90;1.80;;;12.00;38.20;;;;;;10447133;28;20240;-75
2023/12/29 02:13:30;;;;;;;1.93;1.77;;;12.00;38.30;;;;;;10447595;28;20734;-75
2023/12/29 02:18:37;;;;;;;1.70;1.60;;;12.00;38.30;;;;;;10447364;28;20728;-75
2023/12/29 02:23:40;;;;;;;1.70;1.60;;;11.90;38.20;;;;;;10447226;28;20312;-75
2023/12/29 02:28:52;;;;;;;1.97;1.83;;;11.90;38.30;;;;;;10447321;28;20287;-75
2023/12/29 02:33:56;;;;;;;2.00;1.90;;;11.80;38.20;;;;;;10447377;28;20225;-74
2023/12/29 02:39:00;;;;;;;2.37;1.93;;;11.80;38.30;;;;;;10446933;28;20741;-75
2023/12/29 02:44:05;;;;;;;2.33;2.23;;;11.80;38.40;;;;;;10446604;28;20231;-75
2023/12/29 02:49:11;;;;;;;2.40;2.20;;;11.80;38.30;;;;;;10446832;28;20612;-74
2023/12/29 02:54:14;;;;;;;2.40;2.20;;;11.70;38.20;;;;;;10450390;28;20237;-75
2023/12/29 02:59:19;;;;;;;2.20;2.10;;;11.70;38.20;;;;;;10454462;28;20818;-74
2023/12/29 03:04:22;;;;;;;2.20;2.00;;;11.70;38.20;;;;;;10454020;28;20239;-75
2023/12/29 03:09:25;;;;;;;2.00;1.90;;;11.70;38.20;;;;;;10453810;28;20327;-75
2023/12/29 03:14:30;;;;;;;2.40;2.20;;;11.60;38.10;;;;;;10453908;28;20308;-74
2023/12/29 03:19:33;;;;;;;2.40;2.20;;;11.70;37.90;;;;;;10453959;28;20236;-75
2023/12/29 03:24:37;;;;;;;2.40;2.20;;;11.70;37.80;;;;;;10453544;28;20229;-74
2023/12/29 03:29:42;;;;;;;2.40;2.20;;;11.60;37.60;;;;;;10453386;28;20237;-75
2023/12/29 03:34:45;;;;;;;2.10;2.00;;;11.60;37.30;;;;;;10453186;28;20637;-75
2023/12/29 03:39:49;;;;;;;2.20;2.10;;;11.60;37.40;;;;;;10453289;28;20229;-75
2023/12/29 03:44:53;;;;;;;2.03;1.93;;;11.50;37.20;;;;;;10452730;28;20233;-75
2023/12/29 03:49:57;;;;;;;2.27;2.07;;;11.50;37.30;;;;;;10452511;28;20229;-74
2023/12/29 03:55:00;;;;;;;2.00;1.90;;;11.40;37.10;;;;;;10452055;28;20232;-74
2023/12/29 04:00:06;;;;;;;3.20;2.13;;;11.40;37.10;;;;;;10451966;28;20316;-74
2023/12/29 04:05:10;;;;;;;2.53;2.33;;;11.30;37.30;;;;;;10451954;28;20224;-74
2023/12/29 04:10:13;;;;;;;2.67;2.47;;;11.10;37.30;;;;;;10451632;28;20239;-74
2023/12/29 04:15:18;;;;;;;2.27;2.07;;;11.00;37.40;;;;;;10451706;28;20241;-74
2023/12/29 04:20:21;;;;;;;2.70;2.50;;;11.00;37.90;;;;;;10451302;28;20316;-74
2023/12/29 04:25:24;;;;;;;2.20;1.93;;;11.00;38.10;;;;;;10451042;28;20256;-74
2023/12/29 04:30:29;;;;;;;4.00;2.50;;;11.00;38.20;;;;;;10450951;28;20320;-74
2023/12/29 04:35:32;;;;;;;2.77;2.30;;;10.90;38.20;;;;;;10450262;28;20714;-74
2023/12/29 04:40:37;;;;;;;2.60;2.40;;;10.90;38.10;;;;;;10450206;28;20607;-74
2023/12/29 04:45:42;;;;;;;2.93;2.40;;;10.80;38.30;;;;;;10450403;28;20233;-74
2023/12/29 04:50:45;;;;;;;2.97;2.67;;;10.80;38.50;;;;;;10449913;28;20233;-74
2023/12/29 04:55:48;;;;;;;2.80;2.60;;;10.70;38.40;;;;;;10449652;28;20316;-74
2023/12/29 05:00:53;;;;;;;5.97;2.80;;;10.70;38.50;;;;;;10449526;28;20753;-75
2023/12/29 05:05:56;;;;;;;3.50;2.30;;;10.70;38.60;;;;;;10449755;28;20232;-74
2023/12/29 05:10:59;;;;;;;2.70;2.50;;;10.60;38.30;;;;;;10449300;28;20763;-74
2023/12/29 05:16:04;;;;;;;2.73;2.53;;;10.60;38.40;;;;;;10448765;28;20702;-74
2023/12/29 05:21:15;;;;;;;3.17;2.60;;;10.60;38.70;;;;;;10448675;28;20233;-74
2023/12/29 05:26:18;;;;;;;3.87;2.90;;;10.70;38.70;;;;;;10448824;28;20239;-75
2023/12/29 05:31:23;;;;;;;2.80;2.60;;;10.70;38.70;;;;;;10448587;28;20243;-74
2023/12/29 05:36:26;;;;;;;2.93;2.63;;;10.80;38.70;;;;;;10448448;28;20229;-74
2023/12/29 05:41:29;;;;;;;2.90;2.70;;;10.90;38.60;;;;;;10447809;28;20243;-75
2023/12/29 05:46:34;;;;;;;3.10;2.80;;;11.00;38.60;;;;;;10448325;28;20332;-74
2023/12/29 05:51:37;;;;;;;3.63;3.33;;;11.10;38.30;;;;;;10448329;28;20286;-74
2023/12/29 05:56:40;;;;;;;3.20;3.00;;;11.10;38.20;;;;;;10448187;28;20224;-74
2023/12/29 06:01:45;;;;;;;3.30;3.10;;;11.10;38.10;;;;;;10447680;28;20229;-75
2023/12/29 06:06:49;;;;;;;3.40;3.10;;;11.10;38.00;;;;;;10447318;28;20225;-75
2023/12/29 06:11:52;;;;;;;3.10;2.80;;;11.10;38.00;;;;;;10447782;28;20232;-75
2023/12/29 06:16:57;;;;;;;3.50;3.30;;;11.10;38.00;;;;;;10447531;28;20224;-74
2023/12/29 06:22:00;;;;;;;2.60;2.40;;;11.10;37.80;;;;;;10447204;28;20237;-75
2023/12/29 06:27:04;;;;;;;2.83;2.63;;;11.00;37.70;;;;;;10449017;28;20237;-75
2023/12/29 06:32:09;;;;;;;3.53;3.23;;;11.00;37.80;;;;;;10455712;28;20961;-74
2023/12/29 06:37:12;;;;;;;2.93;2.70;;;11.00;37.80;;;;;;10455440;28;20344;-74
2023/12/29 06:42:15;;;;;;;3.30;2.90;;;11.00;37.80;;;;;;10455592;28;20240;-75
2023/12/29 06:47:20;;;;;;;2.97;2.67;;;11.00;37.70;;;;;;10455395;28;20240;-74
2023/12/29 06:52:23;;;;;;;3.03;2.83;;;11.10;37.80;;;;;;10454789;28;20315;-75
2023/12/29 06:57:27;;;;;;;2.80;2.60;;;11.20;37.80;;;;;;10454995;28;20671;-75
2023/12/29 07:02:31;;;;;;;4.77;3.50;;;11.20;37.90;;;;;;10454315;28;20355;-75
2023/12/29 07:07:36;;;;;;;3.33;3.03;;;11.30;38.00;;;;;;10454310;28;20233;-75
2023/12/29 07:12:39;;;;;;;4.30;3.70;;;11.30;38.00;;;;;;10454328;28;20229;-75
2023/12/29 07:17:44;;;;;;;3.20;2.90;;;11.40;38.00;;;;;;10454038;28;20232;-74
2023/12/29 07:22:47;;;;;;;2.80;2.60;;;11.50;38.00;;;;;;10453743;28;20309;-75
2023/12/29 07:27:50;;;;;;;3.13;2.80;;;11.60;38.10;;;;;;10453277;28;20658;-75
2023/12/29 07:32:55;;;;;;;2.50;2.30;;;11.60;38.10;;;;;;10453424;28;20232;-75
2023/12/29 07:37:58;;;;;;;3.00;2.70;;;11.70;38.00;;;;;;10452661;28;20233;-75
2023/12/29 07:43:02;;;;;;;2.93;2.57;;;11.70;37.90;;;;;;10452822;28;20231;-74
2023/12/29 07:48:08;;;;;;;4.10;3.50;;;11.70;37.90;;;;;;10452834;28;20236;-75
2023/12/29 07:53:13;;;;;;;3.07;2.73;;;11.80;37.90;;;;;;10452936;28;20609;-75
2023/12/29 07:58:16;;;;;;;2.60;2.40;;;11.80;38.10;;;;;;10452576;28;20793;-75
2023/12/29 08:03:21;;;;;;;2.70;2.50;;;11.90;38.10;;;;;;10452125;28;20233;-75
2023/12/29 08:08:24;;;;;;;2.40;2.20;;;12.00;38.10;;;;;;10451920;28;20280;-75
2023/12/29 08:13:28;;;;;;;2.30;2.20;;;12.10;38.10;;;;;;10452122;28;20229;-75
2023/12/29 08:18:33;;;;;;;2.30;2.10;;;12.20;38.10;;;;;;10451160;28;20232;-75
2023/12/29 08:23:36;;;;;;;3.30;3.00;;;12.30;38.10;;;;;;10451290;28;20233;-75
2023/12/29 08:28:39;;;;;;;2.53;2.30;;;12.40;38.20;;;;;;10451119;28;20233;-75
2023/12/29 08:33:44;;;;;;;2.63;2.43;;;12.50;38.20;;;;;;10450844;28;20228;-75
2023/12/29 08:38:47;;;;;;;2.30;2.20;;;12.60;38.20;;;;;;10450943;28;20260;-75
2023/12/29 08:43:51;;;;;;;2.03;1.93;;;12.80;38.30;;;;;;10450989;28;20603;-75
2023/12/29 08:48:55;;;;;;;3.00;2.30;;;12.90;38.10;;;;;;10450722;28;20324;-75
2023/12/29 08:53:59;;;;;;;2.53;2.20;;;13.00;37.90;;;;;;10449093;28;20232;-75
2023/12/29 08:59:02;;;;;;;3.27;2.20;;;13.00;37.90;;;;;;10449774;28;20228;-74
2023/12/29 09:04:07;;;;;;;2.20;2.10;;;13.10;38.00;;;;;;10449501;28;20335;-75
2023/12/29 09:09:12;;;;;;;2.07;1.87;;;13.10;38.10;;;;;;10449436;28;20722;-75
2023/12/29 09:14:24;;;;;;;2.20;2.00;;;13.20;38.00;;;;;;10614926;27;20552;-74
2023/12/29 09:19:27;;;;;;;2.00;1.90;;;13.30;37.70;;;;;;10609136;27;20322;-75
2023/12/29 09:24:42;;;;;;;1.90;1.70;;;13.40;38.00;;;;;;10608820;27;20318;-74
2023/12/29 09:29:47;;;;;;;1.87;1.70;;;13.50;37.90;;;;;;10609181;27;20316;-74
2023/12/29 09:34:50;;;;;;;2.40;1.70;;;13.60;37.80;;;;;;10608673;27;20232;-74
2023/12/29 09:39:54;;;;;;;1.70;1.60;;;13.70;37.90;;;;;;10608417;27;20229;-75
2023/12/29 09:45:02;;;;;;;1.73;1.63;;;13.80;37.90;;;;;;10607879;27;20226;-75
2023/12/29 09:50:06;;;;;;;1.77;1.67;;;13.90;37.70;;;;;;10607633;27;20236;-75
2023/12/29 09:55:11;;;;;;;2.27;2.07;;;14.00;37.90;;;;;;10607961;27;20238;-74
2023/12/29 10:00:17;;;;;;;3.40;3.10;;;14.20;38.00;;;;;;10607388;27;20738;-75
2023/12/29 10:05:21;;;;;;;1.80;1.70;;;14.40;37.60;;;;;;10607624;27;20229;-75
2023/12/29 10:10:26;;;;;;;1.77;1.67;;;14.50;37.70;;;;;;10607114;27;20290;-74
2023/12/29 10:15:38;;;;;;;1.87;1.77;;;14.60;37.20;;;;;;10607236;27;20222;-74
2023/12/29 10:20:49;;;;;;;2.50;1.70;;;14.60;36.90;;;;;;10607177;27;20249;-74
2023/12/29 10:25:53;;;;;;;1.63;1.53;;;14.60;37.10;;;;;;10577461;27;20231;-74
2023/12/29 10:30:58;;;;;;;1.67;1.30;;;14.60;37.40;;;;;;10578043;28;20253;-74
2023/12/29 10:36:05;;;;;;;1.50;1.40;;;14.70;37.40;;;;;;10578004;28;20231;-74
2023/12/29 10:41:16;;;;;;;1.70;1.60;;;14.70;37.10;;;;;;10577568;27;20668;-75
2023/12/29 10:46:21;;;;;;;1.43;1.33;;;14.70;36.80;;;;;;10577438;28;20617;-74
2023/12/29 10:51:29;;;;;;;1.90;1.73;;;14.80;37.30;;;;;;10576947;27;20705;-74
2023/12/29 10:56:32;;;;;;;1.80;1.60;;;14.80;37.30;;;;;;10577149;28;20223;-75
2023/12/29 11:01:37;;;;;;;1.70;1.60;;;14.80;37.40;;;;;;10576855;27;20277;-75
2023/12/29 11:06:44;;;;;;;1.60;1.50;;;14.80;37.00;;;;;;10577034;28;20229;-74
2023/12/29 11:11:48;;;;;;;2.57;2.37;;;14.80;37.20;;;;;;10576586;28;20634;-74
2023/12/29 11:16:55;;;;;;;2.13;1.93;;;14.80;37.20;;;;;;10576054;27;20666;-75
2023/12/29 11:21:58;;;;;;;2.00;1.83;;;14.80;37.10;;;;;;10576052;28;20786;-74
2023/12/29 11:27:03;;;;;;;2.30;2.10;;;14.80;37.10;;;;;;10575381;28;20736;-74
2023/12/29 11:32:13;;;;;;;2.00;1.90;;;14.70;36.90;;;;;;10575459;27;20631;-74
2023/12/29 11:37:31;;;;;;;2.20;2.00;;;14.60;36.80;;;;;;10574421;28;20678;-74
2023/12/29 11:42:39;;;;;;;1.83;1.73;;;14.60;36.90;;;;;;10575484;28;20228;-74
2023/12/29 11:47:44;;;;;;;2.17;1.97;;;14.60;36.90;;;;;;10574858;28;20241;-74
2023/12/29 11:52:47;;;;;;;2.07;1.87;;;14.50;36.90;;;;;;10574820;27;20258;-74
2023/12/29 11:57:50;;;;;;;2.23;1.83;;;14.50;37.20;;;;;;10574443;28;20325;-74
2023/12/29 12:02:55;;;;;;;2.07;1.97;;;14.50;37.10;;;;;;10574374;28;20313;-74
2023/12/29 12:08:00;;;;;;;1.77;1.67;;;14.50;36.90;;;;;;10574088;28;20482;-74
2023/12/29 12:13:03;;;;;;;1.60;1.50;;;14.50;37.00;;;;;;10573390;28;20234;-74
2023/12/29 12:18:12;;;;;;;1.70;1.60;;;14.60;37.10;;;;;;10573993;28;20241;-74
2023/12/29 12:23:19;;;;;;;1.63;1.53;;;14.60;36.90;;;;;;10573680;28;20315;-74
2023/12/29 12:28:22;;;;;;;1.90;1.67;;;14.60;36.80;;;;;;10573063;27;20241;-74
2023/12/29 12:33:28;;;;;;;1.77;1.50;;;14.70;36.90;;;;;;10573222;28;20223;-74
2023/12/29 12:38:33;;;;;;;1.80;1.50;;;14.70;36.90;;;;;;10573091;28;20227;-74
2023/12/29 12:43:39;;;;;;;1.50;1.40;;;14.70;36.90;;;;;;10572877;28;20313;-74
2023/12/29 12:48:45;;;;;;;1.60;1.50;;;14.60;36.80;;;;;;10572534;28;20230;-74
2023/12/29 12:53:50;;;;;;;1.50;1.40;;;14.60;36.70;;;;;;10572570;28;20242;-74
2023/12/29 12:58:54;;;;;;;1.53;1.43;;;14.60;36.90;;;;;;10572330;28;20226;-74
2023/12/29 13:03:59;;;;;;;1.33;1.23;;;14.60;36.80;;;;;;10572585;28;20311;-74
2023/12/29 13:09:06;;;;;;;1.60;1.50;;;14.60;36.60;;;;;;10571966;28;20234;-74
2023/12/29 13:14:10;;;;;;;1.70;1.60;;;14.60;36.60;;;;;;10572048;28;20239;-74
2023/12/29 13:19:19;;;;;;;1.50;1.40;;;14.60;36.80;;;;;;10572008;28;20234;-74
2023/12/29 13:24:24;;;;;;;1.53;1.43;;;14.60;36.30;;;;;;10572142;28;20234;-74
2023/12/29 13:29:29;;;;;;;1.33;1.23;;;14.60;36.70;;;;;;10571683;28;20237;-74
2023/12/29 13:34:38;;;;;;;2.20;2.10;;;14.60;36.70;;;;;;10571805;28;20306;-74
2023/12/29 13:39:47;;;;;;;1.60;1.50;;;14.60;36.50;;;;;;10571709;28;20235;-74
2023/12/29 13:44:51;;;;;;;1.50;1.40;;;14.60;36.50;;;;;;10571747;28;20231;-74
2023/12/29 13:49:56;;;;;;;1.87;1.33;;;14.60;36.40;;;;;;10569193;28;20886;-73
2023/12/29 13:54:59;;;;;;;1.30;1.20;;;14.60;36.50;;;;;;10570964;28;20233;-73
2023/12/29 14:00:16;;;;;;;1.80;1.53;;;14.50;36.60;;;;;;10575966;27;20693;-74
2023/12/29 14:05:27;;;;;;;1.43;1.30;;;14.50;36.40;;;;;;10579475;27;20254;-74
2023/12/29 14:10:31;;;;;;;1.40;1.30;;;14.40;36.50;;;;;;10579047;27;20230;-74
2023/12/29 14:15:38;;;;;;;24.10;18.47;;;14.40;36.80;;;;;;10578902;28;20231;-74
2023/12/29 14:20:43;;;;;;;4.63;3.20;;;14.50;36.80;;;;;;10578290;27;20671;-74
2023/12/29 14:25:47;;;;;;;3.10;2.87;;;14.40;36.70;;;;;;10578415;28;20280;-74
2023/12/29 14:30:50;;;;;;;2.53;2.33;;;14.50;36.80;;;;;;10578078;27;20591;-73
2023/12/29 14:35:55;;;;;;;5.10;4.60;;;14.40;36.80;;;;;;10577898;28;20283;-74
2023/12/29 14:40:58;;;;;;;3.73;2.70;;;14.40;36.60;;;;;;10577774;28;20729;-75
2023/12/29 14:46:03;;;;;;;2.87;2.60;;;14.40;36.80;;;;;;10576951;28;20306;-74
2023/12/29 14:51:07;;;;;;;1.60;1.50;;;14.30;36.70;;;;;;10577242;27;20231;-74
2023/12/29 14:56:11;;;;;;;1.90;1.70;;;14.30;36.70;;;;;;10576988;27;20232;-74
2023/12/29 15:01:14;;;;;;;1.77;1.60;;;14.20;36.70;;;;;;10576838;27;20241;-74
2023/12/29 15:06:19;;;;;;;2.03;1.93;;;14.30;36.70;;;;;;10576972;28;20310;-74
2023/12/29 15:11:22;;;;;;;1.90;1.80;;;14.20;36.60;;;;;;10575995;27;20230;-74
2023/12/29 15:16:25;;;;;;;1.73;1.63;;;14.20;36.60;;;;;;10576414;28;20257;-74
2023/12/29 15:21:30;;;;;;;1.83;1.67;;;14.20;36.70;;;;;;10576263;28;20744;-74
2023/12/29 15:26:33;;;;;;;2.40;2.17;;;14.10;36.50;;;;;;10576001;28;20219;-74
2023/12/29 15:31:36;;;;;;;2.40;2.20;;;14.10;36.70;;;;;;10575490;27;20301;-74
2023/12/29 15:36:41;;;;;;;1.73;1.63;;;14.00;36.70;;;;;;10575704;28;20230;-74
2023/12/29 15:41:44;;;;;;;1.70;1.57;;;14.00;36.60;;;;;;10575388;28;20235;-74
2023/12/29 15:46:48;;;;;;;1.80;1.70;;;13.90;36.60;;;;;;10575443;27;20223;-74
2023/12/29 15:51:52;;;;;;;1.83;1.73;;;13.90;36.70;;;;;;10574951;28;20357;-74
2023/12/29 15:56:55;;;;;;;1.80;1.70;;;13.80;36.70;;;;;;10574709;27;20231;-74
2023/12/29 16:02:00;;;;;;;1.70;1.60;;;13.80;36.70;;;;;;10574715;28;20308;-74
2023/12/29 16:07:05;;;;;;;1.70;1.60;;;13.70;36.70;;;;;;10574130;27;20223;-74
2023/12/29 16:12:08;;;;;;;1.97;1.87;;;13.70;36.70;;;;;;10573899;28;20223;-74
2023/12/29 16:17:12;;;;;;;1.90;1.80;;;13.70;36.80;;;;;;10573748;27;20712;-74
2023/12/29 16:22:16;;;;;;;1.70;1.60;;;13.60;36.70;;;;;;10573479;28;20231;-74
2023/12/29 16:27:19;;;;;;;2.20;1.93;;;13.60;36.80;;;;;;10573566;28;20235;-75
2023/12/29 16:32:25;;;;;;;1.83;1.70;;;13.60;36.90;;;;;;10573972;27;20609;-75
2023/12/29 16:37:36;;;;;;;2.20;1.70;;;13.50;36.70;;;;;;10573941;28;20253;-75
2023/12/29 16:42:42;;;;;;;2.90;1.93;;;13.50;36.80;;;;;;10573890;28;20255;-75
2023/12/29 16:47:45;;;;;;;1.93;1.83;;;13.50;36.80;;;;;;10573810;28;20235;-75
2023/12/29 16:52:50;;;;;;;1.70;1.60;;;13.40;36.80;;;;;;10573477;28;20235;-75
2023/12/29 16:57:53;;;;;;;1.80;1.70;;;13.40;36.60;;;;;;10573433;27;20854;-75
2023/12/29 17:02:59;;;;;;;2.10;2.00;;;13.50;36.90;;;;;;10573600;28;20237;-75
2023/12/29 17:08:05;;;;;;;2.33;2.10;;;13.50;36.80;;;;;;10573032;28;20226;-74
2023/12/29 17:13:09;;;;;;;1.90;1.80;;;13.40;36.70;;;;;;10573291;28;20278;-75
2023/12/29 17:18:12;;;;;;;2.10;1.90;;;13.40;36.80;;;;;;10573186;28;20254;-75
2023/12/29 17:23:17;;;;;;;2.80;2.60;;;13.40;36.90;;;;;;10572777;28;20248;-75
2023/12/29 17:28:20;;;;;;;2.00;1.90;;;13.30;36.80;;;;;;10571797;28;20900;-72
2023/12/29 17:33:23;;;;;;;2.10;2.00;;;13.20;36.80;;;;;;10575490;28;20233;-73
2023/12/29 17:38:28;;;;;;;2.13;1.87;;;13.20;36.90;;;;;;10580120;28;20312;-74
2023/12/29 17:43:31;;;;;;;1.90;1.80;;;13.10;37.10;;;;;;10580543;27;20301;-76
2023/12/29 17:48:35;;;;;;;1.90;1.80;;;13.10;37.10;;;;;;10579675;28;20612;-73
2023/12/29 17:53:39;;;;;;;3.10;2.90;;;13.10;37.20;;;;;;10579825;28;20266;-73
2023/12/29 17:58:44;;;;;;;2.70;2.50;;;13.10;37.30;;;;;;10579595;27;20241;-74
2023/12/29 18:03:49;;;;;;;1.90;1.80;;;13.10;37.40;;;;;;10579167;27;20270;-73
2023/12/29 18:08:55;;;;;;;1.80;1.70;;;13.10;37.30;;;;;;10578946;27;20603;-74
2023/12/29 18:13:59;;;;;;;1.70;1.60;;;13.10;37.80;;;;;;10578495;27;20310;-73
2023/12/29 18:19:02;;;;;;;1.70;1.60;;;13.10;37.20;;;;;;10578376;28;20231;-74
2023/12/29 18:24:07;;;;;;;2.50;2.30;;;13.20;37.20;;;;;;10578492;27;20283;-73
2023/12/29 18:29:12;;;;;;;1.77;1.60;;;13.20;37.40;;;;;;10578080;27;20235;-73
2023/12/29 18:34:16;;;;;;;2.10;1.93;;;13.10;37.30;;;;;;10577964;28;20239;-73
2023/12/29 18:39:21;;;;;;;2.20;2.10;;;13.20;37.20;;;;;;10577768;27;20316;-73
2023/12/29 18:44:24;;;;;;;2.17;1.97;;;13.20;37.20;;;;;;10577192;28;20291;-73
2023/12/29 18:49:27;;;;;;;1.73;1.63;;;13.20;37.40;;;;;;10577609;28;20223;-73
2023/12/29 18:54:33;;;;;;;1.80;1.70;;;13.10;37.30;;;;;;10577252;27;20253;-73
2023/12/29 18:59:36;;;;;;;1.90;1.80;;;13.10;37.40;;;;;;10576844;27;20689;-73
2023/12/29 19:04:39;;;;;;;2.40;2.20;;;13.10;37.40;;;;;;10576641;27;20233;-73
2023/12/29 19:09:44;;;;;;;2.40;2.20;;;13.00;37.20;;;;;;10576556;28;20243;-73
2023/12/29 19:14:52;;;;;;;2.33;2.13;;;13.00;37.50;;;;;;10576343;28;20234;-73
2023/12/29 19:19:56;;;;;;;7.03;6.33;;;12.90;37.30;;;;;;10575628;28;20242;-73
2023/12/29 19:25:00;;;;;;;4.13;3.73;;;12.90;37.40;;;;;;10575846;28;20223;-73
2023/12/29 19:30:04;;;;;;;3.30;3.00;;;12.80;37.50;;;;;;10575405;28;20731;-73
2023/12/29 19:35:08;;;;;;;3.23;2.97;;;12.80;37.40;;;;;;10575155;28;20246;-72
2023/12/29 19:40:13;;;;;;;4.33;3.90;;;12.70;37.70;;;;;;10575089;28;20235;-73
2023/12/29 19:45:18;;;;;;;4.40;3.20;;;12.70;37.80;;;;;;10575111;27;20233;-73
2023/12/29 19:50:21;;;;;;;2.80;2.60;;;12.60;37.80;;;;;;10574888;28;20227;-73
2023/12/29 19:55:25;;;;;;;2.90;2.70;;;12.50;37.90;;;;;;10573939;28;20615;-73
2023/12/29 20:00:28;;;;;;;3.17;2.87;;;12.40;38.10;;;;;;10574372;28;20227;-73
2023/12/29 20:05:32;;;;;;;2.83;2.60;;;12.40;38.10;;;;;;10574158;28;20294;-73
2023/12/29 20:10:37;;;;;;;2.33;2.13;;;12.40;38.10;;;;;;10574136;28;20233;-73
2023/12/29 20:15:42;;;;;;;2.00;1.83;;;12.40;38.50;;;;;;10573775;28;20922;-73
2023/12/29 20:20:46;;;;;;;2.43;2.23;;;12.30;38.40;;;;;;10573664;28;20744;-73
2023/12/29 20:25:54;;;;;;;3.70;3.40;;;12.40;38.40;;;;;;10573706;28;20305;-73
2023/12/29 20:30:57;;;;;;;3.03;2.73;;;12.40;38.80;;;;;;10573415;28;20325;-73
2023/12/29 20:36:00;;;;;;;3.00;2.60;;;12.40;38.30;;;;;;10573200;28;20727;-73
2023/12/29 20:41:05;;;;;;;2.20;2.10;;;12.40;38.20;;;;;;10572971;28;20261;-74
2023/12/29 20:46:09;;;;;;;2.60;2.40;;;12.50;38.50;;;;;;10572868;28;20569;-73
2023/12/29 20:51:14;;;;;;;2.07;1.97;;;12.40;38.30;;;;;;10572689;28;20234;-74
2023/12/29 20:56:21;;;;;;;1.90;1.80;;;12.40;38.40;;;;;;10572545;27;20234;-74
2023/12/29 21:01:24;;;;;;;2.07;1.97;;;12.40;38.60;;;;;;10572356;28;20552;-73
2023/12/29 21:06:31;;;;;;;2.27;2.13;;;12.40;38.60;;;;;;10572155;28;20291;-74
2023/12/29 21:11:35;;;;;;;2.00;1.90;;;12.40;38.40;;;;;;10572374;28;20223;-74
2023/12/29 21:16:39;;;;;;;2.60;2.20;;;12.40;38.50;;;;;;10572007;28;20231;-74
2023/12/29 21:21:46;;;;;;;2.40;2.20;;;12.40;38.50;;;;;;10571861;28;20317;-74
2023/12/29 21:26:51;;;;;;;2.00;1.90;;;12.40;38.40;;;;;;10572156;28;20230;-74
2023/12/29 21:31:55;;;;;;;2.07;1.90;;;12.40;38.60;;;;;;10571443;28;20225;-74
2023/12/29 21:36:58;;;;;;;2.10;2.00;;;12.40;38.60;;;;;;10571638;28;20255;-74
2023/12/29 21:42:03;;;;;;;1.93;1.83;;;12.40;38.60;;;;;;10571861;28;20223;-74
2023/12/29 21:47:06;;;;;;;2.10;2.00;;;12.40;38.70;;;;;;10571490;28;20792;-74
2023/12/29 21:52:09;;;;;;;2.20;2.00;;;12.40;38.40;;;;;;10570972;28;20279;-74
2023/12/29 21:57:14;;;;;;;1.83;1.73;;;12.40;38.30;;;;;;10571321;28;20239;-74
2023/12/29 22:02:17;;;;;;;1.80;1.70;;;12.40;38.50;;;;;;10571336;28;20234;-74
2023/12/29 22:07:20;;;;;;;3.20;2.10;;;12.40;38.50;;;;;;10571269;28;20233;-74
2023/12/29 22:12:25;;;;;;;2.00;1.90;;;12.30;38.40;;;;;;10570983;28;20223;-74
2023/12/29 22:17:28;;;;;;;1.60;1.50;;;12.30;38.60;;;;;;10571325;28;20301;-74
2023/12/29 22:22:32;;;;;;;1.70;1.60;;;12.20;38.50;;;;;;10578045;27;20313;-74
2023/12/29 22:27:37;;;;;;;1.83;1.73;;;12.20;38.40;;;;;;10578201;27;20233;-74
2023/12/29 22:32:40;;;;;;;1.50;1.40;;;12.20;38.60;;;;;;10578241;27;20772;-74
2023/12/29 22:37:44;;;;;;;1.50;1.40;;;12.20;38.40;;;;;;10577715;28;20752;-74
2023/12/29 22:42:48;;;;;;;1.20;1.10;;;12.20;38.30;;;;;;10578167;28;20262;-74
2023/12/29 22:47:51;;;;;;;1.40;1.30;;;12.20;38.40;;;;;;10577584;27;20241;-74
2023/12/29 22:52:55;;;;;;;1.50;1.40;;;12.20;38.40;;;;;;10577186;27;20231;-74
2023/12/29 22:57:59;;;;;;;2.80;1.80;;;12.20;38.40;;;;;;10577201;28;20259;-74
2023/12/29 23:03:04;;;;;;;2.27;2.07;;;12.20;38.20;;;;;;10576932;27;20264;-74
2023/12/29 23:08:07;;;;;;;1.90;1.80;;;12.20;38.20;;;;;;10576680;27;20821;-74
2023/12/29 23:13:12;;;;;;;2.23;2.03;;;12.10;38.10;;;;;;10576779;27;20302;-74
2023/12/29 23:18:15;;;;;;;3.83;2.33;;;12.10;38.10;;;;;;10576358;28;20235;-74
2023/12/29 23:23:18;;;;;;;1.57;1.40;;;12.10;38.00;;;;;;10576188;27;20223;-74
2023/12/29 23:28:23;;;;;;;1.60;1.50;;;12.10;37.80;;;;;;10575722;28;20323;-74
2023/12/29 23:33:26;;;;;;;1.57;1.37;;;12.10;37.80;;;;;;10575547;28;20226;-74
2023/12/29 23:38:30;;;;;;;2.03;1.23;;;12.00;37.70;;;;;;10575637;28;20235;-74
2023/12/29 23:43:35;;;;;;;1.40;1.30;;;12.00;37.70;;;;;;10575257;28;20897;-74
2023/12/29 23:48:39;;;;;;;1.30;1.20;;;12.00;37.60;;;;;;10575146;28;20626;-76
2023/12/29 23:53:42;;;;;;;1.40;1.30;;;11.90;37.50;;;;;;10575627;27;20649;-74
2023/12/29 23:58:50;;;;;;;1.30;1.10;;;11.90;37.70;;;;;;10575393;27;20231;-74
